createdAt,value
2022-11-22T00:01:05.285Z,93.28
2022-11-22T00:06:07.898Z,93.95
2022-11-22T00:11:12.034Z,95.22
2022-11-22T00:16:15.737Z,94.78
2022-11-22T00:21:18.441Z,91.10
2022-11-22T00:26:22.365Z,91.34
2022-11-22T00:31:25.220Z,98.41
2022-11-22T00:36:27.828Z,100.00
2022-11-22T00:41:31.906Z,100.00
2022-11-22T00:46:34.655Z,98.39
2022-11-22T00:51:37.418Z,95.73
2022-11-22T00:56:42.448Z,94.77
2022-11-22T01:01:45.328Z,92.30
2022-11-22T01:06:47.931Z,95.67
2022-11-22T01:11:52.251Z,96.49
2022-11-22T01:16:54.873Z,96.37
2022-11-22T01:21:57.682Z,94.84
2022-11-22T01:27:01.603Z,94.10
2022-11-22T01:32:04.980Z,92.47
2022-11-22T01:37:07.723Z,91.16
2022-11-22T01:42:12.335Z,97.34
2022-11-22T01:47:16.635Z,96.73
2022-11-22T01:52:21.547Z,94.02
2022-11-22T01:57:31.317Z,92.40
2022-11-22T02:02:35.486Z,95.56
2022-11-22T02:07:46.938Z,93.54
2022-11-22T02:12:52.707Z,100.00
2022-11-22T02:17:57.718Z,100.00
2022-11-22T02:23:08.454Z,100.00
2022-11-22T02:28:14.989Z,100.00
2022-11-22T02:33:18.361Z,100.00
2022-11-22T02:38:24.884Z,99.56
2022-11-22T02:43:32.259Z,98.92
2022-11-22T02:48:35.173Z,95.54
2022-11-22T02:53:38.565Z,95.74
2022-11-22T02:58:44.328Z,100.00
2022-11-22T03:03:47.147Z,99.69
2022-11-22T03:08:55.934Z,100.00
2022-11-22T03:14:00.501Z,98.00
2022-11-22T03:19:03.104Z,100.00
2022-11-22T03:24:06.613Z,100.00
2022-11-22T03:29:10.559Z,100.00
2022-11-22T03:34:15.706Z,97.21
2022-11-22T03:39:18.396Z,94.41
2022-11-22T03:44:22.298Z,94.15
2022-11-22T03:49:24.896Z,91.46
2022-11-22T03:54:27.510Z,96.15
2022-11-22T03:59:31.657Z,95.70
2022-11-22T04:04:34.526Z,98.21
2022-11-22T04:09:37.258Z,94.29
2022-11-22T04:14:59.011Z,97.31
2022-11-22T04:20:15.543Z,96.69
2022-11-22T04:25:18.206Z,96.90
2022-11-22T04:30:42.765Z,93.26
2022-11-22T04:35:46.719Z,92.97
2022-11-22T04:40:49.829Z,91.59
2022-11-22T04:45:54.046Z,91.81
2022-11-22T04:51:14.730Z,90.23
2022-11-22T04:56:17.924Z,90.77
2022-11-22T05:01:22.074Z,91.04
2022-11-22T05:06:24.877Z,93.54
2022-11-22T05:11:27.503Z,97.96
2022-11-22T05:16:31.714Z,96.62
2022-11-22T05:21:35.703Z,98.85
2022-11-22T05:26:39.468Z,99.27
2022-11-22T05:31:48.373Z,94.87
2022-11-22T05:36:53.990Z,94.74
2022-11-22T05:41:59.457Z,94.23
2022-11-22T05:47:03.508Z,95.38
2022-11-22T05:52:06.448Z,94.38
2022-11-22T05:57:09.091Z,96.75
2022-11-22T06:02:13.127Z,99.31
2022-11-22T06:07:15.924Z,96.36
2022-11-22T06:12:18.657Z,93.69
2022-11-22T06:17:22.654Z,92.30
2022-11-22T06:22:25.254Z,93.18
2022-11-22T06:27:27.998Z,93.16
2022-11-22T06:32:35.174Z,92.18
2022-11-22T06:37:37.874Z,92.63
2022-11-22T06:42:40.539Z,94.42
2022-11-22T06:47:44.507Z,92.44
2022-11-22T06:52:51.895Z,91.78
2022-11-22T06:57:54.616Z,90.80
2022-11-22T07:03:01.138Z,91.88
2022-11-22T07:08:10.530Z,94.52
2022-11-22T07:13:16.362Z,93.01
2022-11-22T07:18:20.333Z,92.32
2022-11-22T07:23:22.918Z,93.79
2022-11-22T07:28:26.299Z,92.31
2022-11-22T07:33:30.572Z,92.96
2022-11-22T07:38:33.620Z,92.21
2022-11-22T07:43:36.652Z,92.52
2022-11-22T07:48:40.904Z,92.84
2022-11-22T07:53:43.708Z,92.88
2022-11-22T07:58:47.139Z,94.73
2022-11-22T08:03:51.169Z,94.16
2022-11-22T08:08:58.735Z,93.24
2022-11-22T08:14:04.900Z,95.51
2022-11-22T08:19:09.069Z,92.91
2022-11-22T08:24:11.951Z,93.68
2022-11-22T08:29:14.827Z,93.15
2022-11-22T08:34:18.814Z,91.10
2022-11-22T08:39:22.132Z,92.27
2022-11-22T08:44:24.718Z,92.15
2022-11-22T08:49:29.105Z,91.63
2022-11-22T08:54:37.335Z,91.76
2022-11-22T08:59:40.470Z,92.59
2022-11-22T09:04:44.463Z,91.06
2022-11-22T09:09:48.380Z,92.38
2022-11-22T09:14:51.166Z,91.03
2022-11-22T09:19:55.184Z,90.27
2022-11-22T09:24:57.934Z,90.03
2022-11-22T09:30:00.564Z,90.65
2022-11-22T09:35:04.797Z,91.01
2022-11-22T09:40:08.904Z,89.13
2022-11-22T09:45:33.347Z,88.76
2022-11-22T09:50:46.977Z,88.67
2022-11-22T09:55:52.795Z,88.24
2022-11-22T10:00:58.503Z,87.54
2022-11-22T10:06:06.888Z,88.28
2022-11-22T10:11:20.053Z,87.60
2022-11-22T10:16:28.663Z,87.66
2022-11-22T10:21:32.597Z,87.54
2022-11-22T10:26:35.742Z,87.67
2022-11-22T10:31:45.975Z,87.48
2022-11-22T10:36:56.989Z,86.06
2022-11-22T10:42:15.057Z,87.07
2022-11-22T10:47:37.227Z,86.37
2022-11-22T10:52:51.197Z,87.24
2022-11-22T10:58:04.017Z,87.27
2022-11-22T11:03:19.690Z,87.59
2022-11-22T11:08:54.403Z,87.33
2022-11-22T11:13:58.004Z,86.65
2022-11-22T11:19:12.607Z,86.17
2022-11-22T11:24:17.854Z,86.76
2022-11-22T11:29:37.922Z,83.36
2022-11-22T11:34:44.188Z,83.40
2022-11-22T11:39:48.476Z,81.35
2022-11-22T11:44:51.085Z,81.79
2022-11-22T11:49:53.878Z,81.38
2022-11-22T11:55:00.436Z,80.45
2022-11-22T12:00:05.911Z,80.26
2022-11-22T12:05:27.546Z,78.50
2022-11-22T12:10:39.794Z,78.55
2022-11-22T12:15:52.275Z,79.01
2022-11-22T12:21:04.946Z,79.08
2022-11-22T12:26:08.975Z,77.08
2022-11-22T12:31:24.789Z,76.54
2022-11-22T12:36:32.857Z,74.51
2022-11-22T12:41:40.256Z,72.17
2022-11-22T12:46:47.619Z,72.13
2022-11-22T12:51:55.098Z,69.23
2022-11-22T12:57:02.597Z,67.47
2022-11-22T13:02:16.639Z,66.18
2022-11-22T13:07:28.238Z,66.24
2022-11-22T13:12:35.591Z,67.04
2022-11-22T13:17:39.119Z,69.60
2022-11-22T13:22:49.806Z,72.03
2022-11-22T13:27:58.866Z,74.07
2022-11-22T13:33:02.090Z,75.54
2022-11-22T13:38:07.145Z,76.75
2022-11-22T13:43:34.407Z,76.16
2022-11-22T13:49:08.385Z,79.05
2022-11-22T13:54:58.850Z,79.86
2022-11-22T14:00:40.417Z,81.13
2022-11-22T14:05:48.458Z,82.20
2022-11-22T14:11:10.135Z,81.45
2022-11-22T14:16:29.890Z,80.54
2022-11-22T14:21:49.802Z,82.20
2022-11-22T14:27:01.056Z,82.57
2022-11-22T14:32:14.861Z,84.87
2022-11-22T14:37:47.353Z,87.39
2022-11-22T14:43:01.988Z,86.20
2022-11-22T14:48:16.840Z,86.70
2022-11-22T14:53:27.885Z,86.05
2022-11-22T14:58:31.313Z,88.95
2022-11-22T15:09:17.858Z,89.44
2022-11-22T15:09:53.013Z,89.24
2022-11-22T15:58:55.544Z,96.44
2022-11-22T16:04:00.458Z,98.43
2022-11-22T16:09:05.573Z,95.23
2022-11-22T16:14:53.233Z,96.10
2022-11-22T16:20:27.576Z,100.00
2022-11-22T16:25:33.248Z,96.97
2022-11-22T16:30:43.229Z,94.57
2022-11-22T16:35:48.676Z,94.96
2022-11-22T16:40:52.842Z,97.07
2022-11-22T16:45:55.807Z,95.19
2022-11-22T16:51:02.781Z,96.81
2022-11-22T16:56:05.618Z,95.15
2022-11-22T17:01:11.097Z,94.04
2022-11-22T17:06:18.567Z,94.19
2022-11-22T17:11:23.894Z,94.59
2022-11-22T17:16:27.621Z,94.59
2022-11-22T17:21:37.799Z,95.92
2022-11-22T17:26:40.875Z,94.04
2022-11-22T17:31:47.661Z,93.06
2022-11-22T17:36:51.634Z,93.42
2022-11-22T17:41:55.296Z,92.76
2022-11-22T17:46:57.860Z,92.26
2022-11-22T17:52:02.919Z,92.11
2022-11-22T17:57:05.568Z,94.47
2022-11-22T18:02:08.243Z,96.11
2022-11-22T18:07:12.378Z,100.00
2022-11-22T18:12:15.214Z,97.53
2022-11-22T18:17:17.936Z,100.00
2022-11-22T18:22:21.903Z,100.00
2022-11-22T18:27:24.710Z,99.83
2022-11-22T18:32:28.372Z,98.70
2022-11-22T18:37:32.633Z,96.79
2022-11-22T18:42:35.906Z,95.87
2022-11-22T18:47:38.763Z,94.96
2022-11-22T18:52:44.316Z,96.48
2022-11-22T18:57:47.386Z,96.65
2022-11-22T19:02:50.276Z,95.58
2022-11-22T19:07:54.411Z,96.04
2022-11-22T19:12:57.034Z,97.31
2022-11-22T19:17:59.747Z,96.49
2022-11-22T19:23:03.805Z,95.00
2022-11-22T19:28:06.429Z,94.93
2022-11-22T19:33:08.951Z,96.29
2022-11-22T19:38:13.016Z,95.19
2022-11-22T19:43:16.626Z,95.38
2022-11-22T19:48:22.110Z,94.51
2022-11-22T19:53:26.350Z,94.15
2022-11-22T19:58:31.067Z,97.90
2022-11-22T20:03:34.494Z,98.30
2022-11-22T20:08:39.068Z,99.41
2022-11-22T20:13:42.699Z,96.57
2022-11-22T20:18:45.334Z,95.97
2022-11-22T20:23:50.262Z,97.68
2022-11-22T20:28:56.148Z,100.00
2022-11-22T20:33:59.882Z,100.00
2022-11-22T20:39:09.693Z,96.97
2022-11-22T20:44:14.493Z,97.11
2022-11-22T20:49:17.118Z,97.34
2022-11-22T20:54:21.198Z,95.15
2022-11-22T20:59:23.798Z,95.68
2022-11-22T21:04:26.375Z,95.69
2022-11-22T21:09:30.608Z,94.68
2022-11-22T21:14:33.656Z,94.77
2022-11-22T21:19:36.381Z,95.08
2022-11-22T21:24:40.378Z,96.98
2022-11-22T21:29:42.975Z,97.02
2022-11-22T21:34:45.629Z,95.13
2022-11-22T21:39:49.576Z,94.25
2022-11-22T21:44:52.247Z,95.01
2022-11-22T21:49:55.058Z,95.31
2022-11-22T21:54:59.020Z,94.36
2022-11-22T22:00:01.665Z,96.06
2022-11-22T22:05:04.497Z,97.87
2022-11-22T22:10:09.124Z,100.00
2022-11-22T22:15:13.005Z,100.00
2022-11-22T22:20:15.799Z,100.00
2022-11-22T22:25:20.007Z,100.00
2022-11-22T22:30:23.118Z,97.71
2022-11-22T22:35:25.790Z,95.86
2022-11-22T22:40:30.158Z,95.50
2022-11-22T22:45:35.811Z,94.53
2022-11-22T22:50:38.403Z,94.08
2022-11-22T22:55:42.396Z,95.34
2022-11-22T23:00:44.967Z,96.39
2022-11-22T23:05:47.658Z,100.00
2022-11-22T23:10:51.679Z,100.00
2022-11-22T23:15:58.781Z,97.10
2022-11-22T23:21:02.667Z,96.26
2022-11-22T23:26:08.613Z,99.89
2022-11-22T23:31:12.969Z,100.00
2022-11-22T23:36:17.525Z,100.00
2022-11-22T23:41:22.482Z,100.00
2022-11-22T23:46:27.514Z,100.00
2022-11-22T23:51:31.834Z,98.39
2022-11-22T23:56:37.105Z,98.48
